sensor_id;sensor_type;location;lat;lon;timestamp;pressure;altitude;pressure_sealevel;temperature;humidity
65872;BME280;52653;50.080;21.992;2024-01-15T00:01:03;97426.14;;;-0.73;85.21
65872;BME280;52653;50.080;21.992;2024-01-15T00:04:41;97418.21;;;-0.74;85.12
65872;BME280;52653;50.080;21.992;2024-01-15T00:07:34;97423.38;;;-0.75;85.05
65872;BME280;52653;50.080;21.992;2024-01-15T00:10:27;97414.77;;;-0.75;85.02
65872;BME280;52653;50.080;21.992;2024-01-15T00:13:12;97411.33;;;-0.74;84.95
65872;BME280;52653;50.080;21.992;2024-01-15T00:15:58;97407.88;;;-0.74;84.94
65872;BME280;52653;50.080;21.992;2024-01-15T00:18:45;97404.45;;;-0.73;84.87
65872;BME280;52653;50.080;21.992;2024-01-15T00:21:37;97401.52;;;-0.74;84.92
65872;BME280;52653;50.080;21.992;2024-01-15T00:24:30;97400.82;;;-0.75;84.66
65872;BME280;52653;50.080;21.992;2024-01-15T00:27:15;97396.01;;;-0.75;84.86
65872;BME280;52653;50.080;21.992;2024-01-15T00:30:08;97392.90;;;-0.76;84.65
65872;BME280;52653;50.080;21.992;2024-01-15T00:32:56;97389.63;;;-0.76;84.75
65872;BME280;52653;50.080;21.992;2024-01-15T00:35:48;97386.85;;;-0.77;84.65
65872;BME280;52653;50.080;21.992;2024-01-15T00:38:41;97380.98;;;-0.77;84.75
65872;BME280;52653;50.080;21.992;2024-01-15T00:41:34;97376.34;;;-0.77;84.71
65872;BME280;52653;50.080;21.992;2024-01-15T00:44:27;97373.24;;;-0.76;84.58
65872;BME280;52653;50.080;21.992;2024-01-15T00:47:20;97371.55;;;-0.76;84.56
65872;BME280;52653;50.080;21.992;2024-01-15T00:49:57;97370.70;;;-0.75;84.56
65872;BME280;52653;50.080;21.992;2024-01-15T00:53:14;97365.89;;;-0.75;84.50
65872;BME280;52653;50.080;21.992;2024-01-15T00:56:06;97365.02;;;-0.75;84.42
65872;BME280;52653;50.080;21.992;2024-01-15T00:58:49;97369.50;;;-0.75;84.31
65872;BME280;52653;50.080;21.992;2024-01-15T01:01:34;97362.94;;;-0.76;84.42
65872;BME280;52653;50.080;21.992;2024-01-15T01:04:15;97363.48;;;-0.75;84.31
65872;BME280;52653;50.080;21.992;2024-01-15T01:07:10;97363.65;;;-0.75;84.21
65872;BME280;52653;50.080;21.992;2024-01-15T01:09:57;97361.59;;;-0.74;84.09
65872;BME280;52653;50.080;21.992;2024-01-15T01:12:49;97360.89;;;-0.74;84.24
65872;BME280;52653;50.080;21.992;2024-01-15T01:15:41;97354.52;;;-0.73;84.25
65872;BME280;52653;50.080;21.992;2024-01-15T01:18:36;97350.58;;;-0.73;84.12
65872;BME280;52653;50.080;21.992;2024-01-15T01:21:29;97345.08;;;-0.73;83.86
65872;BME280;52653;50.080;21.992;2024-01-15T01:24:22;97330.96;;;-0.71;83.94
65872;BME280;52653;50.080;21.992;2024-01-15T01:27:17;97324.08;;;-0.70;83.87
65872;BME280;52653;50.080;21.992;2024-01-15T01:30:03;97316.67;;;-0.70;83.52
65872;BME280;52653;50.080;21.992;2024-01-15T01:32:55;97314.79;;;-0.70;83.70
65872;BME280;52653;50.080;21.992;2024-01-15T01:35:42;97306.02;;;-0.69;83.76
65872;BME280;52653;50.080;21.992;2024-01-15T01:38:36;97298.95;;;-0.69;83.77
65872;BME280;52653;50.080;21.992;2024-01-15T01:41:29;97299.30;;;-0.70;83.74
65872;BME280;52653;50.080;21.992;2024-01-15T01:44:24;97303.25;;;-0.70;83.47
65872;BME280;52653;50.080;21.992;2024-01-15T01:47:17;97300.33;;;-0.70;83.74
65872;BME280;52653;50.080;21.992;2024-01-15T01:50:11;97295.85;;;-0.71;83.67
65872;BME280;52653;50.080;21.992;2024-01-15T01:53:05;97291.73;;;-0.71;83.66
65872;BME280;52653;50.080;21.992;2024-01-15T01:55:58;97288.27;;;-0.72;83.59
65872;BME280;52653;50.080;21.992;2024-01-15T01:58:52;97280.35;;;-0.73;83.40
65872;BME280;52653;50.080;21.992;2024-01-15T02:01:47;97280.35;;;-0.73;83.48
65872;BME280;52653;50.080;21.992;2024-01-15T02:04:34;97280.35;;;-0.74;83.46
65872;BME280;52653;50.080;21.992;2024-01-15T02:07:28;97280.01;;;-0.73;83.43
65872;BME280;52653;50.080;21.992;2024-01-15T02:10:20;97273.98;;;-0.74;83.50
65872;BME280;52653;50.080;21.992;2024-01-15T02:13:14;97267.61;;;-0.74;83.45
65872;BME280;52653;50.080;21.992;2024-01-15T02:16:09;97265.20;;;-0.74;83.38
65872;BME280;52653;50.080;21.992;2024-01-15T02:19:02;97267.45;;;-0.73;83.23
65872;BME280;52653;50.080;21.992;2024-01-15T02:21:58;97267.27;;;-0.73;83.23
65872;BME280;52653;50.080;21.992;2024-01-15T02:24:51;97262.96;;;-0.72;83.20
65872;BME280;52653;50.080;21.992;2024-01-15T02:27:26;97257.81;;;-0.72;82.93
65872;BME280;52653;50.080;21.992;2024-01-15T02:30:19;97258.50;;;-0.71;82.82
65872;BME280;52653;50.080;21.992;2024-01-15T02:33:12;97255.23;;;-0.69;83.04
65872;BME280;52653;50.080;21.992;2024-01-15T02:36:06;97254.72;;;-0.68;83.00
65872;BME280;52653;50.080;21.992;2024-01-15T02:39:12;97242.16;;;-0.68;82.88
65872;BME280;52653;50.080;21.992;2024-01-15T02:42:05;97232.34;;;-0.68;82.86
65872;BME280;52653;50.080;21.992;2024-01-15T02:44:52;97228.73;;;-0.68;82.76
65872;BME280;52653;50.080;21.992;2024-01-15T02:47:44;97230.97;;;-0.67;82.59
65872;BME280;52653;50.080;21.992;2024-01-15T02:50:36;97225.98;;;-0.68;82.61
65872;BME280;52653;50.080;21.992;2024-01-15T02:53:29;97216.16;;;-0.67;82.60
65872;BME280;52653;50.080;21.992;2024-01-15T02:56:23;97212.03;;;-0.67;82.68
65872;BME280;52653;50.080;21.992;2024-01-15T02:59:16;97206.70;;;-0.66;82.64
65872;BME280;52653;50.080;21.992;2024-01-15T03:02:03;97202.73;;;-0.67;82.70
65872;BME280;52653;50.080;21.992;2024-01-15T03:04:48;97202.74;;;-0.66;82.70
65872;BME280;52653;50.080;21.992;2024-01-15T03:07:40;97203.08;;;-0.66;82.49
65872;BME280;52653;50.080;21.992;2024-01-15T03:10:35;97202.39;;;-0.66;82.38
65872;BME280;52653;50.080;21.992;2024-01-15T03:13:29;97196.89;;;-0.67;82.12
65872;BME280;52653;50.080;21.992;2024-01-15T03:16:24;97192.08;;;-0.67;82.05
65872;BME280;52653;50.080;21.992;2024-01-15T03:19:10;97187.94;;;-0.68;82.19
65872;BME280;52653;50.080;21.992;2024-01-15T03:21:53;97181.39;;;-0.67;81.98
65872;BME280;52653;50.080;21.992;2024-01-15T03:24:46;97184.15;;;-0.67;82.00
65872;BME280;52653;50.080;21.992;2024-01-15T03:27:39;97182.60;;;-0.68;81.88
65872;BME280;52653;50.080;21.992;2024-01-15T03:30:32;97187.24;;;-0.68;81.93
65872;BME280;52653;50.080;21.992;2024-01-15T03:33:18;97181.73;;;-0.68;81.77
65872;BME280;52653;50.080;21.992;2024-01-15T03:36:11;97185.19;;;-0.68;81.81
65872;BME280;52653;50.080;21.992;2024-01-15T03:39:04;97183.11;;;-0.67;81.73
65872;BME280;52653;50.080;21.992;2024-01-15T03:41:47;97179.34;;;-0.67;81.83
65872;BME280;52653;50.080;21.992;2024-01-15T03:44:39;97176.23;;;-0.67;81.74
65872;BME280;52653;50.080;21.992;2024-01-15T03:47:24;97171.77;;;-0.68;81.38
65872;BME280;52653;50.080;21.992;2024-01-15T03:50:18;97171.76;;;-0.67;81.29
65872;BME280;52653;50.080;21.992;2024-01-15T03:53:10;97171.23;;;-0.65;81.15
65872;BME280;52653;50.080;21.992;2024-01-15T03:55:58;97171.24;;;-0.64;81.20
65872;BME280;52653;50.080;21.992;2024-01-15T03:58:51;97163.67;;;-0.64;81.12
65872;BME280;52653;50.080;21.992;2024-01-15T04:01:49;97165.42;;;-0.63;81.28
65872;BME280;52653;50.080;21.992;2024-01-15T04:04:43;97167.32;;;-0.62;81.14
65872;BME280;52653;50.080;21.992;2024-01-15T04:07:37;97165.77;;;-0.63;81.17
65872;BME280;52653;50.080;21.992;2024-01-15T04:10:29;97159.23;;;-0.62;81.07
65872;BME280;52653;50.080;21.992;2024-01-15T04:13:22;97152.86;;;-0.61;80.90
65872;BME280;52653;50.080;21.992;2024-01-15T04:16:01;97151.31;;;-0.58;80.84
65872;BME280;52653;50.080;21.992;2024-01-15T04:18:55;97149.93;;;-0.58;80.65
65872;BME280;52653;50.080;21.992;2024-01-15T04:21:37;97146.48;;;-0.58;80.51
65872;BME280;52653;50.080;21.992;2024-01-15T04:24:33;97137.71;;;-0.58;80.48
65872;BME280;52653;50.080;21.992;2024-01-15T04:27:24;97139.61;;;-0.58;80.36
65872;BME280;52653;50.080;21.992;2024-01-15T04:30:08;97134.96;;;-0.58;80.13
65872;BME280;52653;50.080;21.992;2024-01-15T04:32:51;97135.81;;;-0.59;80.21
65872;BME280;52653;50.080;21.992;2024-01-15T04:35:45;97133.75;;;-0.59;80.19
65872;BME280;52653;50.080;21.992;2024-01-15T04:38:37;97132.89;;;-0.60;80.08
65872;BME280;52653;50.080;21.992;2024-01-15T04:41:30;97126.52;;;-0.60;80.08
65872;BME280;52653;50.080;21.992;2024-01-15T04:44:23;97123.08;;;-0.61;80.20
65872;BME280;52653;50.080;21.992;2024-01-15T04:47:16;97124.80;;;-0.62;80.22
65872;BME280;52653;50.080;21.992;2024-01-15T04:50:09;97123.08;;;-0.62;80.20
65872;BME280;52653;50.080;21.992;2024-01-15T04:53:04;97119.12;;;-0.63;80.25
65872;BME280;52653;50.080;21.992;2024-01-15T04:56:03;97118.43;;;-0.63;80.14
65872;BME280;52653;50.080;21.992;2024-01-15T04:58:56;97113.77;;;-0.63;80.44
65872;BME280;52653;50.080;21.992;2024-01-15T05:01:38;97104.14;;;-0.63;80.35
65872;BME280;52653;50.080;21.992;2024-01-15T05:04:27;97104.99;;;-0.63;80.49
65872;BME280;52653;50.080;21.992;2024-01-15T05:07:20;97107.73;;;-0.65;80.35
65872;BME280;52653;50.080;21.992;2024-01-15T05:10:13;97109.79;;;-0.66;80.51
65872;BME280;52653;50.080;21.992;2024-01-15T05:13:05;97116.16;;;-0.67;80.51
65872;BME280;52653;50.080;21.992;2024-01-15T05:15:58;97118.39;;;-0.68;80.72
65872;BME280;52653;50.080;21.992;2024-01-15T05:18:49;97112.21;;;-0.69;80.82
65872;BME280;52653;50.080;21.992;2024-01-15T05:21:43;97110.31;;;-0.70;80.81
65872;BME280;52653;50.080;21.992;2024-01-15T05:24:27;97113.41;;;-0.70;80.98
65872;BME280;52653;50.080;21.992;2024-01-15T05:27:11;97113.23;;;-0.72;80.93
65872;BME280;52653;50.080;21.992;2024-01-15T05:30:05;97106.88;;;-0.73;80.90
65872;BME280;52653;50.080;21.992;2024-01-15T05:32:48;97097.40;;;-0.74;81.07
65872;BME280;52653;50.080;21.992;2024-01-15T05:35:42;97101.36;;;-0.75;81.01
65872;BME280;52653;50.080;21.992;2024-01-15T05:38:35;97107.73;;;-0.75;80.96
65872;BME280;52653;50.080;21.992;2024-01-15T05:41:10;97104.44;;;-0.77;81.15
65872;BME280;52653;50.080;21.992;2024-01-15T05:44:04;97098.91;;;-0.77;81.00
65872;BME280;52653;50.080;21.992;2024-01-15T05:46:57;97089.80;;;-0.78;81.07
65872;BME280;52653;50.080;21.992;2024-01-15T05:49:50;97082.23;;;-0.79;81.09
65872;BME280;52653;50.080;21.992;2024-01-15T05:52:46;97075.00;;;-0.79;81.04
65872;BME280;52653;50.080;21.992;2024-01-15T05:55:39;97069.48;;;-0.81;81.27
65872;BME280;52653;50.080;21.992;2024-01-15T05:58:32;97069.14;;;-0.81;81.23
65872;BME280;52653;50.080;21.992;2024-01-15T06:01:24;97067.25;;;-0.83;81.32
65872;BME280;52653;50.080;21.992;2024-01-15T06:04:17;97074.66;;;-0.84;81.31
65872;BME280;52653;50.080;21.992;2024-01-15T06:07:08;97069.84;;;-0.84;81.55
65872;BME280;52653;50.080;21.992;2024-01-15T06:10:01;97067.94;;;-0.84;81.46
65872;BME280;52653;50.080;21.992;2024-01-15T06:12:54;97063.64;;;-0.85;81.47
65872;BME280;52653;50.080;21.992;2024-01-15T06:15:45;97064.16;;;-0.85;81.52
65872;BME280;52653;50.080;21.992;2024-01-15T06:18:41;97058.30;;;-0.86;81.72
65872;BME280;52653;50.080;21.992;2024-01-15T06:21:27;97056.77;;;-0.86;81.75
65872;BME280;52653;50.080;21.992;2024-01-15T06:24:20;97060.02;;;-0.86;81.73
65872;BME280;52653;50.080;21.992;2024-01-15T06:27:14;97057.27;;;-0.85;81.83
65872;BME280;52653;50.080;21.992;2024-01-15T06:30:09;97054.34;;;-0.85;81.90
65872;BME280;52653;50.080;21.992;2024-01-15T06:33:03;97052.11;;;-0.86;81.93
65872;BME280;52653;50.080;21.992;2024-01-15T06:35:56;97053.31;;;-0.85;81.82
65872;BME280;52653;50.080;21.992;2024-01-15T06:38:49;97050.39;;;-0.84;82.00
65872;BME280;52653;50.080;21.992;2024-01-15T06:41:42;97056.41;;;-0.83;81.76
65872;BME280;52653;50.080;21.992;2024-01-15T06:44:38;97055.72;;;-0.81;81.81
65872;BME280;52653;50.080;21.992;2024-01-15T06:47:31;97052.11;;;-0.79;81.69
65872;BME280;52653;50.080;21.992;2024-01-15T06:50:25;97049.38;;;-0.75;81.85
65872;BME280;52653;50.080;21.992;2024-01-15T06:53:27;97045.44;;;-0.73;81.90
65872;BME280;52653;50.080;21.992;2024-01-15T06:56:20;97045.94;;;-0.69;81.62
65872;BME280;52653;50.080;21.992;2024-01-15T06:59:14;97046.13;;;-0.64;81.46
65872;BME280;52653;50.080;21.992;2024-01-15T07:02:10;97046.64;;;-0.60;81.34
65872;BME280;52653;50.080;21.992;2024-01-15T07:04:56;97049.75;;;-0.55;81.20
65872;BME280;52653;50.080;21.992;2024-01-15T07:07:47;97041.65;;;-0.52;80.90
65872;BME280;52653;50.080;21.992;2024-01-15T07:10:39;97048.72;;;-0.48;80.67
65872;BME280;52653;50.080;21.992;2024-01-15T07:13:31;97050.27;;;-0.42;80.80
65872;BME280;52653;50.080;21.992;2024-01-15T07:16:24;97046.30;;;-0.38;80.30
65872;BME280;52653;50.080;21.992;2024-01-15T07:19:28;97047.18;;;-0.36;80.26
65872;BME280;52653;50.080;21.992;2024-01-15T07:22:20;97045.45;;;-0.31;80.16
65872;BME280;52653;50.080;21.992;2024-01-15T07:25:13;97044.76;;;-0.26;80.15
65872;BME280;52653;50.080;21.992;2024-01-15T07:28:08;97043.04;;;-0.21;79.75
65872;BME280;52653;50.080;21.992;2024-01-15T07:31:03;97041.83;;;-0.17;79.40
65872;BME280;52653;50.080;21.992;2024-01-15T07:33:57;97043.90;;;-0.13;79.14
65872;BME280;52653;50.080;21.992;2024-01-15T07:36:35;97044.59;;;-0.11;78.85
65872;BME280;52653;50.080;21.992;2024-01-15T07:39:28;97049.23;;;-0.07;79.09
65872;BME280;52653;50.080;21.992;2024-01-15T07:42:21;97051.63;;;-0.03;78.73
65872;BME280;52653;50.080;21.992;2024-01-15T07:45:13;97051.64;;;0.02;78.31
65872;BME280;52653;50.080;21.992;2024-01-15T07:48:07;97040.42;;;0.07;78.29
65872;BME280;52653;50.080;21.992;2024-01-15T07:50:51;97039.21;;;0.16;78.29
65872;BME280;52653;50.080;21.992;2024-01-15T07:53:37;97034.18;;;0.24;77.86
65872;BME280;52653;50.080;21.992;2024-01-15T07:56:30;97033.48;;;0.34;77.39
65872;BME280;52653;50.080;21.992;2024-01-15T07:59:23;97032.77;;;0.43;77.07
65872;BME280;52653;50.080;21.992;2024-01-15T08:02:17;97036.36;;;0.51;76.63
65872;BME280;52653;50.080;21.992;2024-01-15T08:05:04;97033.75;;;0.57;76.25
65872;BME280;52653;50.080;21.992;2024-01-15T08:07:56;97040.80;;;0.64;75.83
65872;BME280;52653;50.080;21.992;2024-01-15T08:10:49;97038.02;;;0.70;75.49
65872;BME280;52653;50.080;21.992;2024-01-15T08:13:45;97041.10;;;0.76;75.25
65872;BME280;52653;50.080;21.992;2024-01-15T08:16:41;97046.05;;;0.84;75.26
65872;BME280;52653;50.080;21.992;2024-01-15T08:19:35;97042.58;;;0.92;74.82
65872;BME280;52653;50.080;21.992;2024-01-15T08:22:21;97039.77;;;0.98;74.13
65872;BME280;52653;50.080;21.992;2024-01-15T08:25:08;97043.73;;;1.06;74.25
65872;BME280;52653;50.080;21.992;2024-01-15T08:28:01;97046.60;;;1.13;73.72
65872;BME280;52653;50.080;21.992;2024-01-15T08:30:46;97043.83;;;1.18;73.37
65872;BME280;52653;50.080;21.992;2024-01-15T08:33:40;97043.09;;;1.23;73.33
65872;BME280;52653;50.080;21.992;2024-01-15T08:36:24;97041.86;;;1.29;73.22
65872;BME280;52653;50.080;21.992;2024-01-15T08:39:19;97041.48;;;1.34;73.03
65872;BME280;52653;50.080;21.992;2024-01-15T08:42:14;97043.00;;;1.40;72.98
65872;BME280;52653;50.080;21.992;2024-01-15T08:45:08;97044.16;;;1.46;72.97
65872;BME280;52653;50.080;21.992;2024-01-15T08:48:25;97046.89;;;1.50;72.58
65872;BME280;52653;50.080;21.992;2024-01-15T08:51:19;97045.33;;;1.53;71.99
65872;BME280;52653;50.080;21.992;2024-01-15T08:54:06;97046.66;;;1.59;71.96
65872;BME280;52653;50.080;21.992;2024-01-15T08:56:53;97043.86;;;1.63;71.58
65872;BME280;52653;50.080;21.992;2024-01-15T08:59:46;97041.06;;;1.68;71.73
65872;BME280;52653;50.080;21.992;2024-01-15T09:02:33;97038.59;;;1.73;71.26
65872;BME280;52653;50.080;21.992;2024-01-15T09:05:18;97037.48;;;1.83;71.18
65872;BME280;52653;50.080;21.992;2024-01-15T09:08:14;97036.52;;;1.93;71.15
65872;BME280;52653;50.080;21.992;2024-01-15T09:11:07;97036.63;;;2.02;71.24
65872;BME280;52653;50.080;21.992;2024-01-15T09:13:55;97036.23;;;2.08;70.62
65872;BME280;52653;50.080;21.992;2024-01-15T09:16:48;97040.34;;;2.12;70.40
65872;BME280;52653;50.080;21.992;2024-01-15T09:19:41;97038.40;;;2.15;70.50
65872;BME280;52653;50.080;21.992;2024-01-15T09:22:34;97039.24;;;2.18;69.92
65872;BME280;52653;50.080;21.992;2024-01-15T09:25:26;97037.45;;;2.23;69.76
65872;BME280;52653;50.080;21.992;2024-01-15T09:28:19;97038.27;;;2.29;69.09
65872;BME280;52653;50.080;21.992;2024-01-15T09:31:11;97037.34;;;2.35;68.71
65872;BME280;52653;50.080;21.992;2024-01-15T09:34:04;97031.91;;;2.41;68.42
65872;BME280;52653;50.080;21.992;2024-01-15T09:36:57;97030.94;;;2.51;68.52
65872;BME280;52653;50.080;21.992;2024-01-15T09:39:52;97028.13;;;2.55;68.16
65872;BME280;52653;50.080;21.992;2024-01-15T09:42:47;97034.19;;;2.56;67.79
65872;BME280;52653;50.080;21.992;2024-01-15T09:45:40;97035.38;;;2.57;67.86
65872;BME280;52653;50.080;21.992;2024-01-15T09:48:36;97038.23;;;2.64;68.26
65872;BME280;52653;50.080;21.992;2024-01-15T09:51:32;97039.41;;;2.67;67.77
65872;BME280;52653;50.080;21.992;2024-01-15T09:54:24;97032.12;;;2.70;67.80
65872;BME280;52653;50.080;21.992;2024-01-15T09:57:18;97032.35;;;2.78;67.34
65872;BME280;52653;50.080;21.992;2024-01-15T10:00:12;97031.02;;;2.87;67.13
65872;BME280;52653;50.080;21.992;2024-01-15T10:03:10;97031.50;;;2.90;66.66
65872;BME280;52653;50.080;21.992;2024-01-15T10:06:04;97025.66;;;2.87;66.38
65872;BME280;52653;50.080;21.992;2024-01-15T10:09:03;97026.71;;;2.86;66.48
65872;BME280;52653;50.080;21.992;2024-01-15T10:11:39;97021.09;;;3.06;66.05
65872;BME280;52653;50.080;21.992;2024-01-15T10:14:14;97010.33;;;3.44;65.44
65872;BME280;52653;50.080;21.992;2024-01-15T10:17:14;97009.64;;;3.97;64.51
65872;BME280;52653;50.080;21.992;2024-01-15T10:19:58;97005.13;;;4.45;63.13
65872;BME280;52653;50.080;21.992;2024-01-15T10:22:53;97006.29;;;4.66;62.64
65872;BME280;52653;50.080;21.992;2024-01-15T10:25:38;97003.04;;;4.73;61.91
65872;BME280;52653;50.080;21.992;2024-01-15T10:28:32;97002.34;;;4.63;60.79
65872;BME280;52653;50.080;21.992;2024-01-15T10:31:26;97004.88;;;4.59;61.06
65872;BME280;52653;50.080;21.992;2024-01-15T10:34:21;97004.33;;;4.60;61.00
65872;BME280;52653;50.080;21.992;2024-01-15T10:37:03;97006.53;;;4.80;61.47
65872;BME280;52653;50.080;21.992;2024-01-15T10:39:55;97002.90;;;5.11;60.76
65872;BME280;52653;50.080;21.992;2024-01-15T10:42:49;97000.40;;;5.38;60.60
65872;BME280;52653;50.080;21.992;2024-01-15T10:49:01;97008.31;;;5.02;59.32
65872;BME280;52653;50.080;21.992;2024-01-15T10:51:57;97005.48;;;4.62;59.54
65872;BME280;52653;50.080;21.992;2024-01-15T10:54:45;97008.14;;;4.33;60.77
65872;BME280;52653;50.080;21.992;2024-01-15T10:57:40;97011.23;;;4.06;60.96
65872;BME280;52653;50.080;21.992;2024-01-15T11:00:33;97009.79;;;3.79;61.66
65872;BME280;52653;50.080;21.992;2024-01-15T11:03:29;97008.04;;;3.57;62.52
65872;BME280;52653;50.080;21.992;2024-01-15T11:06:25;97011.75;;;3.41;63.45
65872;BME280;52653;50.080;21.992;2024-01-15T11:09:20;97012.65;;;3.27;63.67
65872;BME280;52653;50.080;21.992;2024-01-15T11:12:15;97015.02;;;3.18;64.24
65872;BME280;52653;50.080;21.992;2024-01-15T11:15:04;97011.09;;;3.15;64.53
65872;BME280;52653;50.080;21.992;2024-01-15T11:18:01;97007.30;;;3.14;64.69
65872;BME280;52653;50.080;21.992;2024-01-15T11:21:24;97008.96;;;3.07;64.95
65872;BME280;52653;50.080;21.992;2024-01-15T11:24:37;97007.80;;;3.02;65.42
65872;BME280;52653;50.080;21.992;2024-01-15T11:27:42;97006.13;;;2.98;65.57
65872;BME280;52653;50.080;21.992;2024-01-15T11:30:36;97011.15;;;2.98;65.89
65872;BME280;52653;50.080;21.992;2024-01-15T11:33:37;97005.98;;;2.96;66.08
65872;BME280;52653;50.080;21.992;2024-01-15T11:39:43;97000.83;;;2.80;66.68
65872;BME280;52653;50.080;21.992;2024-01-15T11:42:31;97000.88;;;2.75;66.68
65872;BME280;52653;50.080;21.992;2024-01-15T11:45:13;97004.44;;;2.70;66.58
65872;BME280;52653;50.080;21.992;2024-01-15T11:48:13;97002.04;;;2.65;66.66
65872;BME280;52653;50.080;21.992;2024-01-15T11:51:02;96996.26;;;2.58;66.77
65872;BME280;52653;50.080;21.992;2024-01-15T11:53:57;96993.88;;;2.56;66.48
65872;BME280;52653;50.080;21.992;2024-01-15T11:56:55;96996.81;;;2.55;66.53
65872;BME280;52653;50.080;21.992;2024-01-15T11:59:49;96998.72;;;2.54;66.37
65872;BME280;52653;50.080;21.992;2024-01-15T12:02:46;97008.98;;;2.50;66.08
65872;BME280;52653;50.080;21.992;2024-01-15T12:05:36;97001.80;;;2.42;65.97
65872;BME280;52653;50.080;21.992;2024-01-15T12:08:24;97006.38;;;2.35;66.33
65872;BME280;52653;50.080;21.992;2024-01-15T12:11:13;97008.52;;;2.31;67.14
65872;BME280;52653;50.080;21.992;2024-01-15T12:13:56;97000.44;;;2.24;67.22
65872;BME280;52653;50.080;21.992;2024-01-15T12:16:51;97002.77;;;2.19;67.09
65872;BME280;52653;50.080;21.992;2024-01-15T12:19:44;96998.29;;;2.17;67.62
65872;BME280;52653;50.080;21.992;2024-01-15T12:22:30;97008.49;;;2.14;67.01
65872;BME280;52653;50.080;21.992;2024-01-15T12:25:43;97006.77;;;2.15;67.31
65872;BME280;52653;50.080;21.992;2024-01-15T12:28:44;97014.20;;;2.15;67.50
65872;BME280;52653;50.080;21.992;2024-01-15T12:31:30;97009.68;;;2.15;67.94
65872;BME280;52653;50.080;21.992;2024-01-15T12:34:18;97005.90;;;2.14;67.45
65872;BME280;52653;50.080;21.992;2024-01-15T12:37:12;97007.80;;;2.16;67.63
65872;BME280;52653;50.080;21.992;2024-01-15T12:40:04;97007.25;;;2.18;67.55
65872;BME280;52653;50.080;21.992;2024-01-15T12:42:57;96998.41;;;2.21;66.59
65872;BME280;52653;50.080;21.992;2024-01-15T12:45:52;97003.19;;;2.25;66.63
65872;BME280;52653;50.080;21.992;2024-01-15T12:48:43;97000.05;;;2.29;66.68
65872;BME280;52653;50.080;21.992;2024-01-15T12:51:37;97001.98;;;2.42;67.15
65872;BME280;52653;50.080;21.992;2024-01-15T12:54:30;97007.84;;;2.59;66.80
65872;BME280;52653;50.080;21.992;2024-01-15T12:57:18;97005.41;;;2.73;65.72
65872;BME280;52653;50.080;21.992;2024-01-15T13:00:06;97004.79;;;2.82;64.37
65872;BME280;52653;50.080;21.992;2024-01-15T13:02:56;97008.41;;;2.96;64.54
65872;BME280;52653;50.080;21.992;2024-01-15T13:05:49;97014.50;;;3.07;63.87
65872;BME280;52653;50.080;21.992;2024-01-15T13:08:44;97018.13;;;3.07;62.89
65872;BME280;52653;50.080;21.992;2024-01-15T13:11:30;97013.55;;;3.00;63.18
65872;BME280;52653;50.080;21.992;2024-01-15T13:14:16;97016.19;;;2.98;63.82
65872;BME280;52653;50.080;21.992;2024-01-15T13:17:09;97022.65;;;2.93;64.24
65872;BME280;52653;50.080;21.992;2024-01-15T13:20:05;97031.08;;;2.83;64.86
65872;BME280;52653;50.080;21.992;2024-01-15T13:23:00;97039.17;;;2.72;65.27
65872;BME280;52653;50.080;21.992;2024-01-15T13:25:56;97042.34;;;2.67;65.56
65872;BME280;52653;50.080;21.992;2024-01-15T13:28:50;97042.06;;;2.62;65.87
65872;BME280;52653;50.080;21.992;2024-01-15T13:31:41;97040.58;;;2.55;65.52
65872;BME280;52653;50.080;21.992;2024-01-15T13:34:34;97043.88;;;2.56;66.28
65872;BME280;52653;50.080;21.992;2024-01-15T13:37:30;97045.96;;;2.55;66.48
65872;BME280;52653;50.080;21.992;2024-01-15T13:40:15;97048.38;;;2.53;66.91
65872;BME280;52653;50.080;21.992;2024-01-15T13:43:12;97038.52;;;2.54;66.95
65872;BME280;52653;50.080;21.992;2024-01-15T13:46:05;97039.58;;;2.51;66.31
65872;BME280;52653;50.080;21.992;2024-01-15T13:48:59;97036.27;;;2.53;66.55
65872;BME280;52653;50.080;21.992;2024-01-15T13:51:53;97030.18;;;2.57;65.95
65872;BME280;52653;50.080;21.992;2024-01-15T13:54:47;97030.68;;;2.59;65.52
65872;BME280;52653;50.080;21.992;2024-01-15T13:57:41;97028.63;;;2.57;65.22
65872;BME280;52653;50.080;21.992;2024-01-15T14:00:28;97032.16;;;2.51;64.68
65872;BME280;52653;50.080;21.992;2024-01-15T14:03:15;97027.34;;;2.49;65.37
65872;BME280;52653;50.080;21.992;2024-01-15T14:06:09;97026.87;;;2.44;65.45
65872;BME280;52653;50.080;21.992;2024-01-15T14:09:02;97029.34;;;2.39;65.79
65872;BME280;52653;50.080;21.992;2024-01-15T14:11:56;97033.73;;;2.33;66.17
65872;BME280;52653;50.080;21.992;2024-01-15T14:14:39;97031.21;;;2.25;65.35
65872;BME280;52653;50.080;21.992;2024-01-15T14:17:34;97030.77;;;2.18;65.71
65872;BME280;52653;50.080;21.992;2024-01-15T14:20:27;97028.42;;;2.10;65.12
65872;BME280;52653;50.080;21.992;2024-01-15T14:23:20;97030.56;;;2.03;65.12
65872;BME280;52653;50.080;21.992;2024-01-15T14:26:06;97034.09;;;1.96;64.20
65872;BME280;52653;50.080;21.992;2024-01-15T14:28:58;97034.66;;;1.90;64.32
65872;BME280;52653;50.080;21.992;2024-01-15T14:31:52;97039.58;;;1.82;64.28
65872;BME280;52653;50.080;21.992;2024-01-15T14:34:46;97041.85;;;1.77;64.86
65872;BME280;52653;50.080;21.992;2024-01-15T14:37:40;97034.63;;;1.72;64.90
65872;BME280;52653;50.080;21.992;2024-01-15T14:40:33;97035.89;;;1.67;65.56
65872;BME280;52653;50.080;21.992;2024-01-15T14:43:26;97043.02;;;1.61;65.28
65872;BME280;52653;50.080;21.992;2024-01-15T14:46:21;97042.38;;;1.56;65.43
65872;BME280;52653;50.080;21.992;2024-01-15T14:49:13;97049.29;;;1.51;65.54
65872;BME280;52653;50.080;21.992;2024-01-15T14:51:52;97045.70;;;1.47;66.10
65872;BME280;52653;50.080;21.992;2024-01-15T14:54:46;97053.17;;;1.43;65.77
65872;BME280;52653;50.080;21.992;2024-01-15T14:58:01;97057.84;;;1.39;66.53
65872;BME280;52653;50.080;21.992;2024-01-15T15:00:48;97053.22;;;1.34;66.67
65872;BME280;52653;50.080;21.992;2024-01-15T15:03:41;97053.08;;;1.30;67.09
65872;BME280;52653;50.080;21.992;2024-01-15T15:06:35;97051.01;;;1.26;67.34
65872;BME280;52653;50.080;21.992;2024-01-15T15:09:21;97049.14;;;1.23;66.95
65872;BME280;52653;50.080;21.992;2024-01-15T15:12:14;97043.13;;;1.19;67.43